sensor_id;sensor_type;location;lat;lon;timestamp;temperature;humidity
20479;DHT22;10398;52.490;13.434;2022-09-09T00:00:47;16.60;99.90
20479;DHT22;10398;52.490;13.434;2022-09-09T00:03:18;16.60;99.90
20479;DHT22;10398;52.490;13.434;2022-09-09T00:09:25;16.50;99.90
20479;DHT22;10398;52.490;13.434;2022-09-09T00:12:08;16.50;99.90
20479;DHT22;10398;52.490;13.434;2022-09-09T00:17:53;16.50;99.90
20479;DHT22;10398;52.490;13.434;2022-09-09T00:20:49;16.50;99.90
20479;DHT22;10398;52.490;13.434;2022-09-09T00:26:09;16.50;99.90
20479;DHT22;10398;52.490;13.434;2022-09-09T00:31:36;16.40;99.90
20479;DHT22;10398;52.490;13.434;2022-09-09T00:36:38;16.40;99.90
20479;DHT22;10398;52.490;13.434;2022-09-09T00:39:09;16.40;99.90
20479;DHT22;10398;52.490;13.434;2022-09-09T00:44:38;16.30;99.90
20479;DHT22;10398;52.490;13.434;2022-09-09T00:48:06;16.30;99.90
20479;DHT22;10398;52.490;13.434;2022-09-09T00:56:13;16.20;99.90
20479;DHT22;10398;52.490;13.434;2022-09-09T00:58:43;16.20;99.90
20479;DHT22;10398;52.490;13.434;2022-09-09T01:01:16;16.10;99.90
20479;DHT22;10398;52.490;13.434;2022-09-09T01:03:52;16.10;99.90
20479;DHT22;10398;52.490;13.434;2022-09-09T01:11:33;16.00;99.90
20479;DHT22;10398;52.490;13.434;2022-09-09T01:16:43;16.00;99.90
20479;DHT22;10398;52.490;13.434;2022-09-09T01:19:18;15.90;99.90
20479;DHT22;10398;52.490;13.434;2022-09-09T01:21:53;16.00;99.90
20479;DHT22;10398;52.490;13.434;2022-09-09T01:24:48;15.90;99.90
20479;DHT22;10398;52.490;13.434;2022-09-09T01:27:19;15.90;99.90
20479;DHT22;10398;52.490;13.434;2022-09-09T01:29:46;15.90;99.90
20479;DHT22;10398;52.490;13.434;2022-09-09T01:35:09;15.80;99.90
20479;DHT22;10398;52.490;13.434;2022-09-09T01:37:36;15.80;99.90
20479;DHT22;10398;52.490;13.434;2022-09-09T01:40:02;15.80;99.90
20479;DHT22;10398;52.490;13.434;2022-09-09T01:42:27;15.80;99.90
20479;DHT22;10398;52.490;13.434;2022-09-09T01:44:53;15.70;99.90
20479;DHT22;10398;52.490;13.434;2022-09-09T01:47:19;15.70;99.90
20479;DHT22;10398;52.490;13.434;2022-09-09T01:49:47;15.70;99.90
20479;DHT22;10398;52.490;13.434;2022-09-09T01:52:13;15.70;99.90
20479;DHT22;10398;52.490;13.434;2022-09-09T01:54:39;15.60;99.90
20479;DHT22;10398;52.490;13.434;2022-09-09T01:57:24;15.70;99.90
20479;DHT22;10398;52.490;13.434;2022-09-09T02:00:05;15.70;99.90
20479;DHT22;10398;52.490;13.434;2022-09-09T02:03:03;15.70;99.90
20479;DHT22;10398;52.490;13.434;2022-09-09T02:05:37;15.70;99.90
20479;DHT22;10398;52.490;13.434;2022-09-09T02:08:10;15.70;99.90
20479;DHT22;10398;52.490;13.434;2022-09-09T02:10:46;15.70;99.90
20479;DHT22;10398;52.490;13.434;2022-09-09T02:13:15;15.70;99.90
20479;DHT22;10398;52.490;13.434;2022-09-09T02:18:51;15.70;99.90
20479;DHT22;10398;52.490;13.434;2022-09-09T02:21:19;15.60;99.90
20479;DHT22;10398;52.490;13.434;2022-09-09T02:23:46;15.60;99.90
20479;DHT22;10398;52.490;13.434;2022-09-09T02:26:14;15.60;99.90
20479;DHT22;10398;52.490;13.434;2022-09-09T02:28:46;15.60;99.90
20479;DHT22;10398;52.490;13.434;2022-09-09T02:31:17;15.50;99.90
20479;DHT22;10398;52.490;13.434;2022-09-09T02:33:50;15.60;99.90
20479;DHT22;10398;52.490;13.434;2022-09-09T02:36:18;15.50;99.90
20479;DHT22;10398;52.490;13.434;2022-09-09T02:38:47;15.60;99.90
20479;DHT22;10398;52.490;13.434;2022-09-09T02:41:26;15.60;99.90
20479;DHT22;10398;52.490;13.434;2022-09-09T02:43:53;15.60;99.90
20479;DHT22;10398;52.490;13.434;2022-09-09T02:46:53;15.60;99.90
20479;DHT22;10398;52.490;13.434;2022-09-09T02:55:43;15.50;99.90
20479;DHT22;10398;52.490;13.434;2022-09-09T02:58:13;15.50;99.90
20479;DHT22;10398;52.490;13.434;2022-09-09T03:00:43;15.50;99.90
20479;DHT22;10398;52.490;13.434;2022-09-09T03:03:09;15.50;99.90
20479;DHT22;10398;52.490;13.434;2022-09-09T03:05:35;15.60;99.90
20479;DHT22;10398;52.490;13.434;2022-09-09T03:08:01;15.60;99.90
20479;DHT22;10398;52.490;13.434;2022-09-09T03:10:27;15.50;99.90
20479;DHT22;10398;52.490;13.434;2022-09-09T03:12:53;15.50;99.90
20479;DHT22;10398;52.490;13.434;2022-09-09T03:15:18;15.50;99.90
20479;DHT22;10398;52.490;13.434;2022-09-09T03:17:44;15.50;99.90
20479;DHT22;10398;52.490;13.434;2022-09-09T03:20:10;15.40;99.90
20479;DHT22;10398;52.490;13.434;2022-09-09T03:22:35;15.40;99.90
20479;DHT22;10398;52.490;13.434;2022-09-09T03:25:01;15.40;99.90
20479;DHT22;10398;52.490;13.434;2022-09-09T03:27:28;15.40;99.90
20479;DHT22;10398;52.490;13.434;2022-09-09T03:29:54;15.40;99.90
20479;DHT22;10398;52.490;13.434;2022-09-09T03:32:21;15.30;99.90
20479;DHT22;10398;52.490;13.434;2022-09-09T03:34:48;15.30;99.90
20479;DHT22;10398;52.490;13.434;2022-09-09T03:37:15;15.30;99.90
20479;DHT22;10398;52.490;13.434;2022-09-09T03:39:41;15.30;99.90
20479;DHT22;10398;52.490;13.434;2022-09-09T03:42:07;15.30;99.90
20479;DHT22;10398;52.490;13.434;2022-09-09T03:44:32;15.30;99.90
20479;DHT22;10398;52.490;13.434;2022-09-09T03:46:58;15.40;99.90
20479;DHT22;10398;52.490;13.434;2022-09-09T03:49:26;15.30;99.90
20479;DHT22;10398;52.490;13.434;2022-09-09T03:51:57;15.30;99.90
20479;DHT22;10398;52.490;13.434;2022-09-09T03:54:24;15.30;99.90
20479;DHT22;10398;52.490;13.434;2022-09-09T03:56:50;15.20;99.90
20479;DHT22;10398;52.490;13.434;2022-09-09T03:59:16;15.30;99.90
20479;DHT22;10398;52.490;13.434;2022-09-09T04:01:41;15.30;99.90
20479;DHT22;10398;52.490;13.434;2022-09-09T04:04:08;15.30;99.90
20479;DHT22;10398;52.490;13.434;2022-09-09T04:06:34;15.30;99.90
20479;DHT22;10398;52.490;13.434;2022-09-09T04:09:00;15.30;99.90
20479;DHT22;10398;52.490;13.434;2022-09-09T04:11:27;15.30;99.90
20479;DHT22;10398;52.490;13.434;2022-09-09T04:13:53;15.30;99.90
20479;DHT22;10398;52.490;13.434;2022-09-09T04:16:19;15.30;99.90
20479;DHT22;10398;52.490;13.434;2022-09-09T04:18:45;15.30;99.90
20479;DHT22;10398;52.490;13.434;2022-09-09T04:21:11;15.30;99.90
20479;DHT22;10398;52.490;13.434;2022-09-09T04:23:38;15.30;99.90
20479;DHT22;10398;52.490;13.434;2022-09-09T04:26:04;15.30;99.90
20479;DHT22;10398;52.490;13.434;2022-09-09T04:28:32;15.30;99.90
20479;DHT22;10398;52.490;13.434;2022-09-09T04:31:04;15.30;99.90
20479;DHT22;10398;52.490;13.434;2022-09-09T04:33:30;15.30;99.90
20479;DHT22;10398;52.490;13.434;2022-09-09T04:35:57;15.30;99.90
20479;DHT22;10398;52.490;13.434;2022-09-09T04:38:22;15.30;99.90
20479;DHT22;10398;52.490;13.434;2022-09-09T04:40:49;15.30;99.90
20479;DHT22;10398;52.490;13.434;2022-09-09T04:43:15;15.30;99.90
20479;DHT22;10398;52.490;13.434;2022-09-09T04:45:42;15.30;99.90
20479;DHT22;10398;52.490;13.434;2022-09-09T04:48:08;15.30;99.90
20479;DHT22;10398;52.490;13.434;2022-09-09T04:50:35;15.30;99.90
20479;DHT22;10398;52.490;13.434;2022-09-09T04:53:04;15.30;99.90
20479;DHT22;10398;52.490;13.434;2022-09-09T04:55:31;15.30;99.90
20479;DHT22;10398;52.490;13.434;2022-09-09T04:57:57;15.20;99.90
20479;DHT22;10398;52.490;13.434;2022-09-09T05:00:23;15.10;99.90
20479;DHT22;10398;52.490;13.434;2022-09-09T05:02:49;15.20;99.90
20479;DHT22;10398;52.490;13.434;2022-09-09T05:05:14;15.20;99.90
20479;DHT22;10398;52.490;13.434;2022-09-09T05:07:40;15.20;99.90
20479;DHT22;10398;52.490;13.434;2022-09-09T05:10:07;15.20;99.90
20479;DHT22;10398;52.490;13.434;2022-09-09T05:12:32;15.30;99.90
20479;DHT22;10398;52.490;13.434;2022-09-09T05:14:58;15.20;99.90
20479;DHT22;10398;52.490;13.434;2022-09-09T05:17:24;15.20;99.90
20479;DHT22;10398;52.490;13.434;2022-09-09T05:19:49;15.20;99.90
20479;DHT22;10398;52.490;13.434;2022-09-09T05:22:21;15.30;99.90
20479;DHT22;10398;52.490;13.434;2022-09-09T05:24:48;15.30;99.90
20479;DHT22;10398;52.490;13.434;2022-09-09T05:27:19;15.30;99.90
20479;DHT22;10398;52.490;13.434;2022-09-09T05:29:45;15.30;99.90
20479;DHT22;10398;52.490;13.434;2022-09-09T05:32:11;15.30;99.90
20479;DHT22;10398;52.490;13.434;2022-09-09T05:34:37;15.30;99.90
20479;DHT22;10398;52.490;13.434;2022-09-09T05:37:05;15.40;99.90
20479;DHT22;10398;52.490;13.434;2022-09-09T05:39:33;15.40;99.90
20479;DHT22;10398;52.490;13.434;2022-09-09T05:41:59;15.40;99.90
20479;DHT22;10398;52.490;13.434;2022-09-09T05:44:24;15.40;99.90
20479;DHT22;10398;52.490;13.434;2022-09-09T05:46:52;15.40;99.90
20479;DHT22;10398;52.490;13.434;2022-09-09T05:49:19;15.40;99.90
20479;DHT22;10398;52.490;13.434;2022-09-09T05:51:45;15.40;99.90
20479;DHT22;10398;52.490;13.434;2022-09-09T05:54:10;15.50;99.90
20479;DHT22;10398;52.490;13.434;2022-09-09T05:56:38;15.60;99.90
20479;DHT22;10398;52.490;13.434;2022-09-09T05:59:04;15.60;99.90
20479;DHT22;10398;52.490;13.434;2022-09-09T06:01:33;15.60;99.90
20479;DHT22;10398;52.490;13.434;2022-09-09T06:03:59;15.60;99.90
20479;DHT22;10398;52.490;13.434;2022-09-09T06:06:27;15.60;99.90
20479;DHT22;10398;52.490;13.434;2022-09-09T06:08:55;15.60;99.90
20479;DHT22;10398;52.490;13.434;2022-09-09T06:11:26;15.70;99.90
20479;DHT22;10398;52.490;13.434;2022-09-09T06:13:52;15.70;99.90
20479;DHT22;10398;52.490;13.434;2022-09-09T06:16:21;15.70;99.90
20479;DHT22;10398;52.490;13.434;2022-09-09T06:18:49;15.80;99.90
20479;DHT22;10398;52.490;13.434;2022-09-09T06:21:21;15.80;99.90
20479;DHT22;10398;52.490;13.434;2022-09-09T06:23:47;15.90;99.90
20479;DHT22;10398;52.490;13.434;2022-09-09T06:26:24;15.90;99.90
20479;DHT22;10398;52.490;13.434;2022-09-09T06:28:52;15.90;99.90
20479;DHT22;10398;52.490;13.434;2022-09-09T06:31:20;16.00;99.90
20479;DHT22;10398;52.490;13.434;2022-09-09T06:33:47;16.00;99.90
20479;DHT22;10398;52.490;13.434;2022-09-09T06:36:13;16.10;99.90
20479;DHT22;10398;52.490;13.434;2022-09-09T06:38:40;16.20;99.90
20479;DHT22;10398;52.490;13.434;2022-09-09T06:41:12;16.30;99.90
20479;DHT22;10398;52.490;13.434;2022-09-09T06:43:38;16.30;99.90
20479;DHT22;10398;52.490;13.434;2022-09-09T06:46:05;16.30;99.90
20479;DHT22;10398;52.490;13.434;2022-09-09T06:48:31;16.30;99.90
20479;DHT22;10398;52.490;13.434;2022-09-09T06:51:16;16.30;99.90
20479;DHT22;10398;52.490;13.434;2022-09-09T06:53:44;16.30;99.90
20479;DHT22;10398;52.490;13.434;2022-09-09T06:58:40;16.40;99.90
20479;DHT22;10398;52.490;13.434;2022-09-09T07:01:14;16.40;99.90
20479;DHT22;10398;52.490;13.434;2022-09-09T07:03:41;16.40;99.90
20479;DHT22;10398;52.490;13.434;2022-09-09T07:06:09;16.50;99.90
20479;DHT22;10398;52.490;13.434;2022-09-09T07:08:40;16.50;99.90
20479;DHT22;10398;52.490;13.434;2022-09-09T07:11:07;16.60;99.90
20479;DHT22;10398;52.490;13.434;2022-09-09T07:13:34;16.60;99.90
20479;DHT22;10398;52.490;13.434;2022-09-09T07:16:12;16.70;99.90
20479;DHT22;10398;52.490;13.434;2022-09-09T07:18:39;16.80;99.90
20479;DHT22;10398;52.490;13.434;2022-09-09T07:21:05;16.90;99.90
20479;DHT22;10398;52.490;13.434;2022-09-09T07:23:32;16.90;99.90
20479;DHT22;10398;52.490;13.434;2022-09-09T07:25:58;17.00;99.90
20479;DHT22;10398;52.490;13.434;2022-09-09T07:28:25;17.00;99.90
20479;DHT22;10398;52.490;13.434;2022-09-09T07:30:59;17.10;99.90
20479;DHT22;10398;52.490;13.434;2022-09-09T07:33:29;17.10;99.90
20479;DHT22;10398;52.490;13.434;2022-09-09T07:36:36;17.10;99.90
20479;DHT22;10398;52.490;13.434;2022-09-09T07:38:57;17.20;99.90
20479;DHT22;10398;52.490;13.434;2022-09-09T07:41:43;17.30;99.90
20479;DHT22;10398;52.490;13.434;2022-09-09T07:44:11;17.50;99.90
20479;DHT22;10398;52.490;13.434;2022-09-09T07:46:38;17.50;99.90
20479;DHT22;10398;52.490;13.434;2022-09-09T07:49:08;17.50;99.90
20479;DHT22;10398;52.490;13.434;2022-09-09T07:51:37;17.60;99.90
20479;DHT22;10398;52.490;13.434;2022-09-09T07:54:06;17.70;99.90
20479;DHT22;10398;52.490;13.434;2022-09-09T07:56:32;17.90;99.90
20479;DHT22;10398;52.490;13.434;2022-09-09T07:58:58;17.90;99.90
20479;DHT22;10398;52.490;13.434;2022-09-09T08:01:27;18.00;99.90
20479;DHT22;10398;52.490;13.434;2022-09-09T08:03:57;18.10;99.90
20479;DHT22;10398;52.490;13.434;2022-09-09T08:06:28;18.20;99.90
20479;DHT22;10398;52.490;13.434;2022-09-09T08:08:55;18.30;99.90
20479;DHT22;10398;52.490;13.434;2022-09-09T08:11:22;18.50;99.90
20479;DHT22;10398;52.490;13.434;2022-09-09T08:13:49;18.60;99.90
20479;DHT22;10398;52.490;13.434;2022-09-09T08:16:21;18.60;99.90
20479;DHT22;10398;52.490;13.434;2022-09-09T08:18:51;18.70;99.90
20479;DHT22;10398;52.490;13.434;2022-09-09T08:21:20;18.80;99.90
20479;DHT22;10398;52.490;13.434;2022-09-09T08:23:47;18.80;99.90
20479;DHT22;10398;52.490;13.434;2022-09-09T08:26:16;18.80;99.90
20479;DHT22;10398;52.490;13.434;2022-09-09T08:28:42;18.80;99.90
20479;DHT22;10398;52.490;13.434;2022-09-09T08:31:14;18.80;99.90
20479;DHT22;10398;52.490;13.434;2022-09-09T08:33:40;18.80;99.90
20479;DHT22;10398;52.490;13.434;2022-09-09T08:36:08;18.70;99.90
20479;DHT22;10398;52.490;13.434;2022-09-09T08:38:34;18.70;99.90
20479;DHT22;10398;52.490;13.434;2022-09-09T08:41:22;18.70;99.90
20479;DHT22;10398;52.490;13.434;2022-09-09T08:46:54;18.70;99.90
20479;DHT22;10398;52.490;13.434;2022-09-09T08:52:18;18.70;99.90
20479;DHT22;10398;52.490;13.434;2022-09-09T08:54:46;18.70;99.90
20479;DHT22;10398;52.490;13.434;2022-09-09T08:57:16;18.60;99.90
20479;DHT22;10398;52.490;13.434;2022-09-09T08:59:44;18.60;99.90
20479;DHT22;10398;52.490;13.434;2022-09-09T09:05:33;18.70;99.90
20479;DHT22;10398;52.490;13.434;2022-09-09T09:10:53;18.80;99.90
20479;DHT22;10398;52.490;13.434;2022-09-09T09:13:27;18.90;99.90
20479;DHT22;10398;52.490;13.434;2022-09-09T09:16:02;19.00;99.90
20479;DHT22;10398;52.490;13.434;2022-09-09T09:18:31;19.20;99.90
20479;DHT22;10398;52.490;13.434;2022-09-09T09:23:39;19.50;99.90
20479;DHT22;10398;52.490;13.434;2022-09-09T09:26:07;19.60;99.90
20479;DHT22;10398;52.490;13.434;2022-09-09T09:28:36;19.70;99.90
20479;DHT22;10398;52.490;13.434;2022-09-09T09:31:06;19.80;99.90
20479;DHT22;10398;52.490;13.434;2022-09-09T09:33:38;20.00;99.90
20479;DHT22;10398;52.490;13.434;2022-09-09T09:36:09;20.10;99.90
20479;DHT22;10398;52.490;13.434;2022-09-09T09:38:36;20.30;99.90
20479;DHT22;10398;52.490;13.434;2022-09-09T09:41:03;20.40;99.90
20479;DHT22;10398;52.490;13.434;2022-09-09T09:43:31;20.50;99.90
20479;DHT22;10398;52.490;13.434;2022-09-09T09:45:57;20.60;99.90
20479;DHT22;10398;52.490;13.434;2022-09-09T09:48:24;20.80;99.90
20479;DHT22;10398;52.490;13.434;2022-09-09T09:50:53;20.90;99.90
20479;DHT22;10398;52.490;13.434;2022-09-09T09:53:34;21.00;99.90
20479;DHT22;10398;52.490;13.434;2022-09-09T09:58:30;21.30;99.90
20479;DHT22;10398;52.490;13.434;2022-09-09T10:00:57;21.50;99.90
20479;DHT22;10398;52.490;13.434;2022-09-09T10:03:31;21.50;99.90
20479;DHT22;10398;52.490;13.434;2022-09-09T10:05:57;21.60;99.90
20479;DHT22;10398;52.490;13.434;2022-09-09T10:08:25;21.70;99.90
20479;DHT22;10398;52.490;13.434;2022-09-09T10:19:35;21.80;99.90
20479;DHT22;10398;52.490;13.434;2022-09-09T10:27:29;22.00;99.90
20479;DHT22;10398;52.490;13.434;2022-09-09T10:35:22;22.10;99.90
20479;DHT22;10398;52.490;13.434;2022-09-09T10:46:34;22.10;99.90
20479;DHT22;10398;52.490;13.434;2022-09-09T10:52:22;22.10;99.90
20479;DHT22;10398;52.490;13.434;2022-09-09T10:55:00;22.20;99.90
20479;DHT22;10398;52.490;13.434;2022-09-09T10:57:40;22.20;99.90
20479;DHT22;10398;52.490;13.434;2022-09-09T11:00:22;22.40;99.90
20479;DHT22;10398;52.490;13.434;2022-09-09T11:03:09;22.50;99.90
20479;DHT22;10398;52.490;13.434;2022-09-09T11:08:18;22.80;99.90
20479;DHT22;10398;52.490;13.434;2022-09-09T11:16:29;23.20;99.90
20479;DHT22;10398;52.490;13.434;2022-09-09T11:19:04;23.40;99.90
20479;DHT22;10398;52.490;13.434;2022-09-09T11:21:41;23.30;99.90
20479;DHT22;10398;52.490;13.434;2022-09-09T11:24:23;23.20;99.90
20479;DHT22;10398;52.490;13.434;2022-09-09T11:27:06;23.20;99.90
20479;DHT22;10398;52.490;13.434;2022-09-09T11:29:52;23.20;99.90
20479;DHT22;10398;52.490;13.434;2022-09-09T11:38:28;23.10;99.90
20479;DHT22;10398;52.490;13.434;2022-09-09T11:41:00;23.00;99.90
20479;DHT22;10398;52.490;13.434;2022-09-09T11:43:27;23.00;99.90
20479;DHT22;10398;52.490;13.434;2022-09-09T11:45:55;23.00;99.90
20479;DHT22;10398;52.490;13.434;2022-09-09T11:51:00;23.00;99.90
20479;DHT22;10398;52.490;13.434;2022-09-09T11:53:26;22.90;99.90
20479;DHT22;10398;52.490;13.434;2022-09-09T11:56:12;22.90;99.90
20479;DHT22;10398;52.490;13.434;2022-09-09T11:58:55;22.80;99.90
20479;DHT22;10398;52.490;13.434;2022-09-09T12:01:30;22.80;99.90
20479;DHT22;10398;52.490;13.434;2022-09-09T12:07:01;22.60;99.90
20479;DHT22;10398;52.490;13.434;2022-09-09T12:09:32;22.70;99.90
20479;DHT22;10398;52.490;13.434;2022-09-09T12:12:29;22.90;99.90
20479;DHT22;10398;52.490;13.434;2022-09-09T12:15:03;23.10;99.90
20479;DHT22;10398;52.490;13.434;2022-09-09T12:20:26;23.40;99.90
20479;DHT22;10398;52.490;13.434;2022-09-09T12:26:10;23.70;99.90
20479;DHT22;10398;52.490;13.434;2022-09-09T12:31:24;23.80;99.90
20479;DHT22;10398;52.490;13.434;2022-09-09T12:33:50;23.80;99.90
20479;DHT22;10398;52.490;13.434;2022-09-09T12:36:26;23.80;99.90
20479;DHT22;10398;52.490;13.434;2022-09-09T12:38:55;23.80;99.90
20479;DHT22;10398;52.490;13.434;2022-09-09T12:41:26;23.90;99.90
20479;DHT22;10398;52.490;13.434;2022-09-09T12:44:08;23.90;99.90
20479;DHT22;10398;52.490;13.434;2022-09-09T12:46:45;23.80;99.90
20479;DHT22;10398;52.490;13.434;2022-09-09T12:49:36;23.70;99.90
20479;DHT22;10398;52.490;13.434;2022-09-09T12:52:07;23.60;99.90
20479;DHT22;10398;52.490;13.434;2022-09-09T12:54:35;23.50;99.90
20479;DHT22;10398;52.490;13.434;2022-09-09T12:57:02;23.30;99.90
20479;DHT22;10398;52.490;13.434;2022-09-09T12:59:37;23.20;99.90
20479;DHT22;10398;52.490;13.434;2022-09-09T13:02:16;23.10;99.90
20479;DHT22;10398;52.490;13.434;2022-09-09T13:04:43;23.00;99.90
20479;DHT22;10398;52.490;13.434;2022-09-09T13:07:12;23.00;99.90
20479;DHT22;10398;52.490;13.434;2022-09-09T13:09:39;23.00;99.90
20479;DHT22;10398;52.490;13.434;2022-09-09T13:12:06;23.00;99.90
20479;DHT22;10398;52.490;13.434;2022-09-09T13:14:37;22.90;99.90
20479;DHT22;10398;52.490;13.434;2022-09-09T13:17:05;22.90;99.90
20479;DHT22;10398;52.490;13.434;2022-09-09T13:19:36;22.90;99.90
20479;DHT22;10398;52.490;13.434;2022-09-09T13:22:19;22.80;99.90
20479;DHT22;10398;52.490;13.434;2022-09-09T13:24:45;22.80;99.90
20479;DHT22;10398;52.490;13.434;2022-09-09T13:27:34;22.70;99.90
20479;DHT22;10398;52.490;13.434;2022-09-09T13:32:48;22.70;99.90
20479;DHT22;10398;52.490;13.434;2022-09-09T13:35:24;22.70;99.90
20479;DHT22;10398;52.490;13.434;2022-09-09T13:37:50;22.70;99.90
20479;DHT22;10398;52.490;13.434;2022-09-09T13:40:18;22.70;99.90
20479;DHT22;10398;52.490;13.434;2022-09-09T13:42:45;22.80;99.90
20479;DHT22;10398;52.490;13.434;2022-09-09T13:45:23;22.80;99.90
20479;DHT22;10398;52.490;13.434;2022-09-09T13:47:52;22.90;99.90
20479;DHT22;10398;52.490;13.434;2022-09-09T13:50:28;22.90;99.90
20479;DHT22;10398;52.490;13.434;2022-09-09T13:52:56;23.10;99.90
20479;DHT22;10398;52.490;13.434;2022-09-09T13:55:29;23.20;99.90
20479;DHT22;10398;52.490;13.434;2022-09-09T14:00:26;23.60;99.90
20479;DHT22;10398;52.490;13.434;2022-09-09T14:02:54;23.70;99.90
20479;DHT22;10398;52.490;13.434;2022-09-09T14:05:20;23.70;99.90
20479;DHT22;10398;52.490;13.434;2022-09-09T14:07:48;23.60;99.90
20479;DHT22;10398;52.490;13.434;2022-09-09T14:10:14;23.50;99.90
20479;DHT22;10398;52.490;13.434;2022-09-09T14:12:39;23.40;99.90
20479;DHT22;10398;52.490;13.434;2022-09-09T14:15:07;23.30;99.90
20479;DHT22;10398;52.490;13.434;2022-09-09T14:17:34;23.20;99.90
20479;DHT22;10398;52.490;13.434;2022-09-09T14:20:04;23.20;99.90
20479;DHT22;10398;52.490;13.434;2022-09-09T14:22:34;23.10;99.90
20479;DHT22;10398;52.490;13.434;2022-09-09T14:25:00;23.00;99.90
20479;DHT22;10398;52.490;13.434;2022-09-09T14:27:26;23.10;99.90
20479;DHT22;10398;52.490;13.434;2022-09-09T14:29:52;23.20;99.90
20479;DHT22;10398;52.490;13.434;2022-09-09T14:32:18;23.30;99.90
20479;DHT22;10398;52.490;13.434;2022-09-09T14:34:43;23.30;99.90
20479;DHT22;10398;52.490;13.434;2022-09-09T14:37:09;23.30;99.90
20479;DHT22;10398;52.490;13.434;2022-09-09T14:39:35;23.40;99.90
20479;DHT22;10398;52.490;13.434;2022-09-09T14:42:00;23.50;99.90
20479;DHT22;10398;52.490;13.434;2022-09-09T14:44:27;23.50;99.90
20479;DHT22;10398;52.490;13.434;2022-09-09T14:46:53;23.60;99.90
20479;DHT22;10398;52.490;13.434;2022-09-09T14:49:19;23.60;99.90
20479;DHT22;10398;52.490;13.434;2022-09-09T14:51:45;23.50;99.90
20479;DHT22;10398;52.490;13.434;2022-09-09T14:54:11;23.50;99.90
20479;DHT22;10398;52.490;13.434;2022-09-09T14:56:37;23.40;99.90
20479;DHT22;10398;52.490;13.434;2022-09-09T14:59:03;23.20;99.90
20479;DHT22;10398;52.490;13.434;2022-09-09T15:01:30;23.10;99.90
20479;DHT22;10398;52.490;13.434;2022-09-09T15:04:02;23.00;99.90
20479;DHT22;10398;52.490;13.434;2022-09-09T15:06:30;22.90;99.90
20479;DHT22;10398;52.490;13.434;2022-09-09T15:08:57;22.80;99.90
20479;DHT22;10398;52.490;13.434;2022-09-09T15:11:25;22.80;99.90
20479;DHT22;10398;52.490;13.434;2022-09-09T15:13:52;22.70;99.90
20479;DHT22;10398;52.490;13.434;2022-09-09T15:16:19;22.60;99.90
20479;DHT22;10398;52.490;13.434;2022-09-09T15:18:46;22.70;99.90
20479;DHT22;10398;52.490;13.434;2022-09-09T15:21:14;22.80;99.90
20479;DHT22;10398;52.490;13.434;2022-09-09T15:23:41;22.90;99.90
20479;DHT22;10398;52.490;13.434;2022-09-09T15:26:07;23.10;99.90
20479;DHT22;10398;52.490;13.434;2022-09-09T15:28:34;23.20;99.90
20479;DHT22;10398;52.490;13.434;2022-09-09T15:31:13;23.20;99.90
20479;DHT22;10398;52.490;13.434;2022-09-09T15:33:52;23.20;99.90
20479;DHT22;10398;52.490;13.434;2022-09-09T15:36:23;23.20;99.90
20479;DHT22;10398;52.490;13.434;2022-09-09T15:38:49;23.20;99.90
20479;DHT22;10398;52.490;13.434;2022-09-09T15:41:17;23.30;99.90
20479;DHT22;10398;52.490;13.434;2022-09-09T15:43:46;23.20;99.90
20479;DHT22;10398;52.490;13.434;2022-09-09T15:46:33;23.20;99.90
20479;DHT22;10398;52.490;13.434;2022-09-09T15:49:15;23.20;99.90
20479;DHT22;10398;52.490;13.434;2022-09-09T15:51:44;23.20;99.90
20479;DHT22;10398;52.490;13.434;2022-09-09T15:54:16;23.20;99.90
20479;DHT22;10398;52.490;13.434;2022-09-09T15:56:43;23.30;99.90
20479;DHT22;10398;52.490;13.434;2022-09-09T15:59:09;23.30;99.90
20479;DHT22;10398;52.490;13.434;2022-09-09T16:01:36;23.30;99.90
20479;DHT22;10398;52.490;13.434;2022-09-09T16:04:04;23.40;99.90
20479;DHT22;10398;52.490;13.434;2022-09-09T16:06:30;23.50;99.90
20479;DHT22;10398;52.490;13.434;2022-09-09T16:08:57;23.50;99.90
20479;DHT22;10398;52.490;13.434;2022-09-09T16:11:29;23.40;99.90
20479;DHT22;10398;52.490;13.434;2022-09-09T16:13:55;23.40;99.90
20479;DHT22;10398;52.490;13.434;2022-09-09T16:16:23;23.40;99.90
20479;DHT22;10398;52.490;13.434;2022-09-09T16:18:52;23.40;99.90
20479;DHT22;10398;52.490;13.434;2022-09-09T16:23:46;23.30;99.90
20479;DHT22;10398;52.490;13.434;2022-09-09T16:26:13;23.30;99.90
20479;DHT22;10398;52.490;13.434;2022-09-09T16:28:40;23.20;99.90
20479;DHT22;10398;52.490;13.434;2022-09-09T16:31:11;23.10;99.90
20479;DHT22;10398;52.490;13.434;2022-09-09T16:33:40;23.00;99.90
20479;DHT22;10398;52.490;13.434;2022-09-09T16:36:08;22.90;99.90
20479;DHT22;10398;52.490;13.434;2022-09-09T16:38:34;22.80;99.90
20479;DHT22;10398;52.490;13.434;2022-09-09T16:41:03;22.70;99.90
20479;DHT22;10398;52.490;13.434;2022-09-09T16:43:30;22.60;99.90
20479;DHT22;10398;52.490;13.434;2022-09-09T16:45:55;22.50;99.90
20479;DHT22;10398;52.490;13.434;2022-09-09T16:48:21;22.40;99.90
20479;DHT22;10398;52.490;13.434;2022-09-09T16:50:47;22.50;99.90
20479;DHT22;10398;52.490;13.434;2022-09-09T16:53:13;22.40;99.90
20479;DHT22;10398;52.490;13.434;2022-09-09T16:55:40;22.30;99.90
20479;DHT22;10398;52.490;13.434;2022-09-09T16:58:07;22.30;99.90
20479;DHT22;10398;52.490;13.434;2022-09-09T17:00:35;22.20;99.90
20479;DHT22;10398;52.490;13.434;2022-09-09T17:03:01;22.10;99.90
20479;DHT22;10398;52.490;13.434;2022-09-09T17:05:28;22.00;99.90
20479;DHT22;10398;52.490;13.434;2022-09-09T17:07:54;21.90;99.90
20479;DHT22;10398;52.490;13.434;2022-09-09T17:10:23;21.80;99.90
20479;DHT22;10398;52.490;13.434;2022-09-09T17:12:48;21.70;99.90
20479;DHT22;10398;52.490;13.434;2022-09-09T17:15:14;21.50;99.90
20479;DHT22;10398;52.490;13.434;2022-09-09T17:17:40;21.30;99.90
20479;DHT22;10398;52.490;13.434;2022-09-09T17:20:10;21.30;99.90
20479;DHT22;10398;52.490;13.434;2022-09-09T17:22:36;21.10;99.90
20479;DHT22;10398;52.490;13.434;2022-09-09T17:25:03;21.00;99.90
20479;DHT22;10398;52.490;13.434;2022-09-09T17:27:29;20.90;99.90
20479;DHT22;10398;52.490;13.434;2022-09-09T17:29:57;20.90;99.90
20479;DHT22;10398;52.490;13.434;2022-09-09T17:32:22;20.70;99.90
20479;DHT22;10398;52.490;13.434;2022-09-09T17:34:48;20.70;99.90
20479;DHT22;10398;52.490;13.434;2022-09-09T17:37:14;20.70;99.90
20479;DHT22;10398;52.490;13.434;2022-09-09T17:39:39;20.70;99.90
20479;DHT22;10398;52.490;13.434;2022-09-09T17:42:05;20.60;99.90